createdAt,value
2017-12-01T00:00:22.517Z,23.60
2017-12-01T00:02:50.055Z,24.40
2017-12-01T00:05:17.657Z,25.03
2017-12-01T00:07:45.207Z,24.30
2017-12-01T00:10:12.833Z,23.90
2017-12-01T00:12:40.465Z,25.40
2017-12-01T00:15:07.994Z,25.97
2017-12-01T00:17:35.511Z,25.93
2017-12-01T00:20:03.060Z,25.93
2017-12-01T00:22:30.597Z,26.83
2017-12-01T00:24:58.127Z,26.83
2017-12-01T00:27:25.654Z,25.50
2017-12-01T00:29:53.173Z,25.00
2017-12-01T00:32:20.700Z,26.30
2017-12-01T00:34:48.229Z,26.03
2017-12-01T00:37:15.750Z,25.60
2017-12-01T00:39:43.280Z,28.10
2017-12-01T00:42:10.868Z,27.43
2017-12-01T00:44:38.397Z,25.77
2017-12-01T00:47:05.921Z,27.37
2017-12-01T00:49:33.455Z,26.77
2017-12-01T00:52:00.993Z,25.67
2017-12-01T00:54:28.508Z,27.47
2017-12-01T00:56:56.023Z,26.27
2017-12-01T00:59:23.562Z,26.30
2017-12-01T01:01:51.082Z,26.23
2017-12-01T01:04:18.647Z,27.40
2017-12-01T01:06:46.195Z,28.33
2017-12-01T01:09:13.831Z,27.07
2017-12-01T01:11:41.384Z,27.20
2017-12-01T01:14:08.919Z,25.80
2017-12-01T01:16:36.432Z,26.50
2017-12-01T01:19:03.970Z,25.63
2017-12-01T01:21:31.537Z,25.53
2017-12-01T01:23:59.088Z,25.80
2017-12-01T01:26:26.616Z,25.47
2017-12-01T01:28:54.134Z,26.77
2017-12-01T01:31:21.664Z,26.67
2017-12-01T01:33:49.192Z,25.60
2017-12-01T01:36:16.754Z,25.67
2017-12-01T01:38:44.297Z,25.17
2017-12-01T01:41:11.929Z,25.47
2017-12-01T01:43:39.451Z,25.50
2017-12-01T01:46:06.988Z,24.80
2017-12-01T01:48:34.512Z,26.47
2017-12-01T01:51:02.039Z,26.33
2017-12-01T01:53:29.579Z,26.10
2017-12-01T01:55:57.089Z,26.17
2017-12-01T01:58:24.612Z,25.47
2017-12-01T02:00:52.229Z,25.73
2017-12-01T02:03:19.764Z,26.37
2017-12-01T02:05:47.295Z,26.87
2017-12-01T02:08:14.825Z,26.83
2017-12-01T02:10:42.411Z,27.20
2017-12-01T02:13:09.979Z,27.00
2017-12-01T02:15:37.493Z,26.23
2017-12-01T02:18:05.025Z,26.00
2017-12-01T02:20:32.655Z,27.40
2017-12-01T02:23:00.182Z,27.03
2017-12-01T02:25:27.699Z,26.67
2017-12-01T02:27:55.300Z,27.87
2017-12-01T02:30:22.896Z,24.60
2017-12-01T02:32:50.464Z,27.23
2017-12-01T02:35:18.012Z,26.77
2017-12-01T02:37:45.549Z,27.63
2017-12-01T02:40:13.134Z,27.30
2017-12-01T02:42:40.662Z,27.07
2017-12-01T02:45:08.189Z,27.67
2017-12-01T02:47:35.736Z,27.17
2017-12-01T02:50:03.335Z,26.33
2017-12-01T02:52:30.866Z,26.70
2017-12-01T02:54:58.433Z,25.67
2017-12-01T02:57:25.978Z,26.83
2017-12-01T02:59:53.525Z,27.03
2017-12-01T04:24:18.076Z,31.53
2017-12-01T04:26:45.614Z,31.83
2017-12-01T04:29:13.190Z,31.43
2017-12-01T04:31:40.725Z,32.40
2017-12-01T04:34:08.253Z,33.13
2017-12-01T04:36:35.868Z,31.90
2017-12-01T04:39:03.389Z,33.10
2017-12-01T04:41:30.992Z,30.30
2017-12-01T04:43:58.552Z,32.13
2017-12-01T04:46:26.083Z,31.43
2017-12-01T04:48:53.617Z,31.77
2017-12-01T04:51:21.145Z,30.90
2017-12-01T04:53:49.305Z,30.20
2017-12-01T04:56:16.851Z,31.87
2017-12-01T04:58:44.368Z,31.87
2017-12-01T05:01:11.985Z,29.73
2017-12-01T05:03:39.508Z,32.87
2017-12-01T05:06:07.038Z,33.27
2017-12-01T05:08:34.562Z,33.10
2017-12-01T05:11:02.094Z,32.97
2017-12-01T05:13:29.617Z,33.53
2017-12-01T05:15:57.137Z,33.23
2017-12-01T05:18:24.656Z,32.47
2017-12-01T05:20:52.199Z,31.63
2017-12-01T05:23:20.312Z,32.93
2017-12-01T05:25:47.898Z,32.40
2017-12-01T05:28:15.552Z,31.50
2017-12-01T05:30:43.083Z,32.63
2017-12-01T05:33:10.596Z,32.50
2017-12-01T05:35:38.124Z,33.23
2017-12-01T05:38:05.690Z,31.90
2017-12-01T05:40:33.252Z,32.93
2017-12-01T05:43:00.776Z,32.80
2017-12-01T05:45:28.325Z,33.67
2017-12-01T05:47:55.869Z,33.17
2017-12-01T05:50:23.383Z,33.47
2017-12-01T05:52:50.919Z,33.13
2017-12-01T05:55:18.954Z,33.60
2017-12-01T05:57:47.407Z,31.20
2017-12-01T06:00:14.966Z,33.20
2017-12-01T06:02:42.489Z,32.57
2017-12-01T06:05:10.014Z,34.30
2017-12-01T06:07:37.538Z,33.20
2017-12-01T06:10:05.066Z,32.80
2017-12-01T06:12:32.580Z,34.20
2017-12-01T06:15:00.100Z,31.97
2017-12-01T06:17:27.673Z,33.17
2017-12-01T06:19:55.189Z,33.23
2017-12-01T06:22:22.712Z,32.13
2017-12-01T06:24:50.247Z,32.47
2017-12-01T06:27:17.770Z,31.70
2017-12-01T06:29:45.301Z,31.53
2017-12-01T06:32:12.963Z,30.37
2017-12-01T06:34:40.487Z,36.93
2017-12-01T06:37:08.012Z,33.20
2017-12-01T06:39:35.536Z,32.60
2017-12-01T06:42:03.070Z,31.13
2017-12-01T06:44:30.626Z,32.50
2017-12-01T06:46:58.187Z,31.37
2017-12-01T06:49:25.750Z,32.00
2017-12-01T06:51:53.271Z,33.40
2017-12-01T06:54:20.872Z,34.30
2017-12-01T06:56:48.398Z,33.10
2017-12-01T06:59:15.922Z,33.47
2017-12-01T07:01:43.537Z,32.10
2017-12-01T07:04:11.066Z,32.83
2017-12-01T07:06:38.598Z,33.17
2017-12-01T07:09:06.126Z,33.40
2017-12-01T07:11:33.645Z,33.43
2017-12-01T07:14:01.179Z,34.37
2017-12-01T07:16:28.706Z,34.87
2017-12-01T07:18:56.224Z,33.73
2017-12-01T07:21:23.826Z,32.30
2017-12-01T07:23:51.368Z,34.70
2017-12-01T07:26:30.722Z,33.53
2017-12-01T07:28:58.254Z,31.23
2017-12-01T07:31:25.792Z,32.13
2017-12-01T07:33:53.322Z,32.93
2017-12-01T07:36:20.865Z,31.50
2017-12-01T07:38:48.378Z,33.00
2017-12-01T07:41:15.912Z,32.17
2017-12-01T07:43:43.439Z,32.63
2017-12-01T07:46:11.001Z,32.03
2017-12-01T07:48:38.530Z,31.43
2017-12-01T07:51:06.321Z,33.00
2017-12-01T07:53:33.853Z,31.83
2017-12-01T07:56:01.366Z,30.17
2017-12-01T07:58:28.897Z,32.33
2017-12-01T08:00:56.445Z,33.63
2017-12-01T08:03:23.959Z,33.47
2017-12-01T08:05:51.483Z,30.97
2017-12-01T08:08:19.004Z,29.80
2017-12-01T08:10:46.545Z,29.80
2017-12-01T08:13:14.075Z,31.97
2017-12-01T08:15:53.517Z,30.13
2017-12-01T08:18:32.932Z,30.97
2017-12-01T08:21:01.397Z,30.97
2017-12-01T08:23:40.850Z,30.07
2017-12-01T08:26:08.394Z,31.03
2017-12-01T08:28:35.924Z,29.77
2017-12-01T08:31:03.458Z,30.37
2017-12-01T08:33:30.984Z,29.77
2017-12-01T08:35:58.527Z,29.80
2017-12-01T08:38:26.074Z,30.57
2017-12-01T08:40:53.746Z,29.40
2017-12-01T08:43:21.267Z,27.47
2017-12-01T08:45:48.789Z,29.43
2017-12-01T08:48:16.334Z,28.17
2017-12-01T08:50:43.884Z,29.33
2017-12-01T08:53:11.397Z,27.10
2017-12-01T08:55:38.924Z,27.73
2017-12-01T08:58:11.773Z,28.70
2017-12-01T09:00:40.532Z,27.73
2017-12-01T09:03:13.747Z,29.07
2017-12-01T09:05:44.704Z,27.13
2017-12-01T09:08:12.377Z,27.47
2017-12-01T09:10:39.954Z,29.17
2017-12-01T09:13:07.496Z,26.40
2017-12-01T09:15:35.023Z,28.87
2017-12-01T09:18:02.552Z,27.10
2017-12-01T09:20:30.087Z,27.33
2017-12-01T09:22:57.652Z,27.23
2017-12-01T09:25:25.220Z,27.37
2017-12-01T09:27:52.761Z,28.03
2017-12-01T09:30:20.380Z,27.73
2017-12-01T23:18:32.347Z,27.47
2017-12-01T23:21:00.718Z,21.47
2017-12-01T23:23:28.234Z,20.80
2017-12-01T23:25:55.750Z,19.00
2017-12-01T23:28:23.278Z,20.07
2017-12-01T23:30:50.808Z,19.20
2017-12-01T23:33:18.353Z,19.40
2017-12-01T23:35:45.865Z,18.57
2017-12-01T23:38:13.386Z,19.10
2017-12-01T23:40:40.915Z,20.47
2017-12-01T23:43:08.436Z,20.40
2017-12-01T23:45:36.030Z,19.17
2017-12-01T23:48:03.605Z,19.43
2017-12-01T23:50:31.114Z,20.40
2017-12-01T23:52:58.757Z,21.00
2017-12-01T23:55:26.413Z,21.13
2017-12-01T23:57:53.927Z,22.03
